sensor_id;sensor_type;location;lat;lon;timestamp;temperature;humidity
52275;DHT22;38228;50.940;4.024;2023-09-19T00:01:19;15.10;99.90
52275;DHT22;38228;50.940;4.024;2023-09-19T00:03:46;15.00;99.90
52275;DHT22;38228;50.940;4.024;2023-09-19T00:06:11;15.00;99.90
52275;DHT22;38228;50.940;4.024;2023-09-19T00:08:41;15.10;99.90
52275;DHT22;38228;50.940;4.024;2023-09-19T00:11:10;15.10;99.90
52275;DHT22;38228;50.940;4.024;2023-09-19T00:13:36;15.10;99.90
52275;DHT22;38228;50.940;4.024;2023-09-19T00:16:08;15.10;99.90
52275;DHT22;38228;50.940;4.024;2023-09-19T00:18:36;15.20;99.90
52275;DHT22;38228;50.940;4.024;2023-09-19T00:21:02;15.20;99.90
52275;DHT22;38228;50.940;4.024;2023-09-19T00:23:30;15.20;99.90
52275;DHT22;38228;50.940;4.024;2023-09-19T00:26:00;15.10;99.90
52275;DHT22;38228;50.940;4.024;2023-09-19T00:28:29;15.10;99.90
52275;DHT22;38228;50.940;4.024;2023-09-19T00:30:55;15.10;99.90
52275;DHT22;38228;50.940;4.024;2023-09-19T00:33:22;15.10;99.90
52275;DHT22;38228;50.940;4.024;2023-09-19T00:35:52;15.10;99.90
52275;DHT22;38228;50.940;4.024;2023-09-19T00:38:18;15.00;99.90
52275;DHT22;38228;50.940;4.024;2023-09-19T00:40:49;15.10;99.90
52275;DHT22;38228;50.940;4.024;2023-09-19T00:43:17;15.10;99.90
52275;DHT22;38228;50.940;4.024;2023-09-19T00:45:46;15.10;99.90
52275;DHT22;38228;50.940;4.024;2023-09-19T00:48:14;15.10;99.90
52275;DHT22;38228;50.940;4.024;2023-09-19T00:50:42;15.20;99.90
52275;DHT22;38228;50.940;4.024;2023-09-19T00:53:09;15.10;99.90
52275;DHT22;38228;50.940;4.024;2023-09-19T00:55:39;15.20;99.90
52275;DHT22;38228;50.940;4.024;2023-09-19T00:58:10;15.20;99.90
52275;DHT22;38228;50.940;4.024;2023-09-19T01:00:36;15.10;99.90
52275;DHT22;38228;50.940;4.024;2023-09-19T01:03:02;14.90;99.90
52275;DHT22;38228;50.940;4.024;2023-09-19T01:05:29;14.90;99.90
52275;DHT22;38228;50.940;4.024;2023-09-19T01:07:57;14.90;99.90
52275;DHT22;38228;50.940;4.024;2023-09-19T01:10:24;15.00;99.90
52275;DHT22;38228;50.940;4.024;2023-09-19T01:13:03;15.00;99.90
52275;DHT22;38228;50.940;4.024;2023-09-19T01:24:28;15.20;99.90
52275;DHT22;38228;50.940;4.024;2023-09-19T01:27:13;15.20;99.90
52275;DHT22;38228;50.940;4.024;2023-09-19T01:29:46;15.30;99.90
52275;DHT22;38228;50.940;4.024;2023-09-19T01:32:15;15.20;99.90
52275;DHT22;38228;50.940;4.024;2023-09-19T01:34:46;15.30;99.90
52275;DHT22;38228;50.940;4.024;2023-09-19T01:37:18;15.30;99.90
52275;DHT22;38228;50.940;4.024;2023-09-19T01:39:51;15.40;99.90
52275;DHT22;38228;50.940;4.024;2023-09-19T01:47:35;15.50;99.90
52275;DHT22;38228;50.940;4.024;2023-09-19T01:53:33;15.50;99.90
52275;DHT22;38228;50.940;4.024;2023-09-19T01:55:59;15.60;99.90
52275;DHT22;38228;50.940;4.024;2023-09-19T01:58:33;15.70;99.90
52275;DHT22;38228;50.940;4.024;2023-09-19T02:01:00;15.60;99.90
52275;DHT22;38228;50.940;4.024;2023-09-19T02:03:27;15.60;99.90
52275;DHT22;38228;50.940;4.024;2023-09-19T02:05:54;15.60;99.90
52275;DHT22;38228;50.940;4.024;2023-09-19T02:08:22;15.50;99.90
52275;DHT22;38228;50.940;4.024;2023-09-19T02:10:51;15.50;99.90
52275;DHT22;38228;50.940;4.024;2023-09-19T02:13:22;15.60;99.90
52275;DHT22;38228;50.940;4.024;2023-09-19T02:15:53;15.60;99.90
52275;DHT22;38228;50.940;4.024;2023-09-19T02:18:19;15.80;99.90
52275;DHT22;38228;50.940;4.024;2023-09-19T02:20:45;15.70;99.90
52275;DHT22;38228;50.940;4.024;2023-09-19T02:23:12;15.80;99.90
52275;DHT22;38228;50.940;4.024;2023-09-19T02:25:38;15.70;99.90
52275;DHT22;38228;50.940;4.024;2023-09-19T02:28:05;15.80;99.90
52275;DHT22;38228;50.940;4.024;2023-09-19T02:30:31;15.80;99.90
52275;DHT22;38228;50.940;4.024;2023-09-19T02:32:57;15.70;99.90
52275;DHT22;38228;50.940;4.024;2023-09-19T02:35:23;15.80;99.90
52275;DHT22;38228;50.940;4.024;2023-09-19T02:37:51;15.70;99.90
52275;DHT22;38228;50.940;4.024;2023-09-19T02:40:17;15.70;99.90
52275;DHT22;38228;50.940;4.024;2023-09-19T02:42:48;15.60;99.90
52275;DHT22;38228;50.940;4.024;2023-09-19T02:45:18;15.50;99.90
52275;DHT22;38228;50.940;4.024;2023-09-19T02:47:47;15.60;99.90
52275;DHT22;38228;50.940;4.024;2023-09-19T02:50:14;15.70;99.90
52275;DHT22;38228;50.940;4.024;2023-09-19T02:52:43;15.80;99.90
52275;DHT22;38228;50.940;4.024;2023-09-19T02:55:10;15.80;99.90
52275;DHT22;38228;50.940;4.024;2023-09-19T02:57:36;15.80;99.90
52275;DHT22;38228;50.940;4.024;2023-09-19T03:00:07;15.90;99.90
52275;DHT22;38228;50.940;4.024;2023-09-19T03:02:36;15.90;99.90
52275;DHT22;38228;50.940;4.024;2023-09-19T03:05:02;15.70;99.90
52275;DHT22;38228;50.940;4.024;2023-09-19T03:07:29;15.60;99.90
52275;DHT22;38228;50.940;4.024;2023-09-19T03:09:54;15.60;99.90
52275;DHT22;38228;50.940;4.024;2023-09-19T03:12:20;15.40;99.90
52275;DHT22;38228;50.940;4.024;2023-09-19T03:14:46;15.30;99.90
52275;DHT22;38228;50.940;4.024;2023-09-19T03:17:12;15.30;99.90
52275;DHT22;38228;50.940;4.024;2023-09-19T03:19:40;15.20;99.90
52275;DHT22;38228;50.940;4.024;2023-09-19T03:22:06;15.10;99.90
52275;DHT22;38228;50.940;4.024;2023-09-19T03:24:33;15.00;99.90
52275;DHT22;38228;50.940;4.024;2023-09-19T03:27:00;15.00;99.90
52275;DHT22;38228;50.940;4.024;2023-09-19T03:29:26;15.00;99.90
52275;DHT22;38228;50.940;4.024;2023-09-19T03:31:52;14.90;99.90
52275;DHT22;38228;50.940;4.024;2023-09-19T03:34:20;14.90;99.90
52275;DHT22;38228;50.940;4.024;2023-09-19T03:36:46;14.90;99.90
52275;DHT22;38228;50.940;4.024;2023-09-19T03:39:12;15.00;99.90
52275;DHT22;38228;50.940;4.024;2023-09-19T03:41:38;15.10;99.90
52275;DHT22;38228;50.940;4.024;2023-09-19T03:44:04;15.20;99.90
52275;DHT22;38228;50.940;4.024;2023-09-19T03:46:30;15.20;99.90
52275;DHT22;38228;50.940;4.024;2023-09-19T03:48:57;15.30;99.90
52275;DHT22;38228;50.940;4.024;2023-09-19T03:51:23;15.30;99.90
52275;DHT22;38228;50.940;4.024;2023-09-19T03:53:48;15.40;99.90
52275;DHT22;38228;50.940;4.024;2023-09-19T03:56:17;15.40;99.90
52275;DHT22;38228;50.940;4.024;2023-09-19T03:58:43;15.20;99.90
52275;DHT22;38228;50.940;4.024;2023-09-19T04:01:08;15.10;99.90
52275;DHT22;38228;50.940;4.024;2023-09-19T04:03:34;14.90;99.90
52275;DHT22;38228;50.940;4.024;2023-09-19T04:06:14;14.80;99.90
52275;DHT22;38228;50.940;4.024;2023-09-19T04:08:40;14.80;99.90
52275;DHT22;38228;50.940;4.024;2023-09-19T04:11:06;14.70;99.90
52275;DHT22;38228;50.940;4.024;2023-09-19T04:13:32;14.70;99.90
52275;DHT22;38228;50.940;4.024;2023-09-19T04:15:58;14.90;99.90
52275;DHT22;38228;50.940;4.024;2023-09-19T04:18:24;14.90;99.90
52275;DHT22;38228;50.940;4.024;2023-09-19T04:20:50;14.90;99.90
52275;DHT22;38228;50.940;4.024;2023-09-19T04:23:16;14.90;99.90
52275;DHT22;38228;50.940;4.024;2023-09-19T04:25:43;14.90;99.90
52275;DHT22;38228;50.940;4.024;2023-09-19T04:28:09;14.80;99.90
52275;DHT22;38228;50.940;4.024;2023-09-19T04:30:37;14.80;99.90
52275;DHT22;38228;50.940;4.024;2023-09-19T04:33:03;14.80;99.90
52275;DHT22;38228;50.940;4.024;2023-09-19T04:35:29;14.70;99.90
52275;DHT22;38228;50.940;4.024;2023-09-19T04:37:57;14.60;99.90
52275;DHT22;38228;50.940;4.024;2023-09-19T04:40:22;14.60;99.90
52275;DHT22;38228;50.940;4.024;2023-09-19T04:42:56;14.60;99.90
52275;DHT22;38228;50.940;4.024;2023-09-19T04:45:23;14.50;99.90
52275;DHT22;38228;50.940;4.024;2023-09-19T04:47:49;14.60;99.90
52275;DHT22;38228;50.940;4.024;2023-09-19T04:50:15;14.60;99.90
52275;DHT22;38228;50.940;4.024;2023-09-19T04:52:43;14.70;99.90
52275;DHT22;38228;50.940;4.024;2023-09-19T04:55:13;14.60;99.90
52275;DHT22;38228;50.940;4.024;2023-09-19T04:57:51;14.50;99.90
52275;DHT22;38228;50.940;4.024;2023-09-19T05:00:19;14.30;99.90
52275;DHT22;38228;50.940;4.024;2023-09-19T05:02:52;14.30;99.90
52275;DHT22;38228;50.940;4.024;2023-09-19T05:05:18;14.40;99.90
52275;DHT22;38228;50.940;4.024;2023-09-19T05:07:48;14.30;99.90
52275;DHT22;38228;50.940;4.024;2023-09-19T05:10:14;14.30;99.90
52275;DHT22;38228;50.940;4.024;2023-09-19T05:12:40;14.30;99.90
52275;DHT22;38228;50.940;4.024;2023-09-19T05:15:07;14.40;99.90
52275;DHT22;38228;50.940;4.024;2023-09-19T05:17:35;14.30;99.90
52275;DHT22;38228;50.940;4.024;2023-09-19T05:20:02;14.30;99.90
52275;DHT22;38228;50.940;4.024;2023-09-19T05:22:41;14.40;99.90
52275;DHT22;38228;50.940;4.024;2023-09-19T05:25:11;14.50;99.90
52275;DHT22;38228;50.940;4.024;2023-09-19T05:27:41;14.60;99.90
52275;DHT22;38228;50.940;4.024;2023-09-19T05:30:08;14.70;99.90
52275;DHT22;38228;50.940;4.024;2023-09-19T05:32:34;14.70;99.90
52275;DHT22;38228;50.940;4.024;2023-09-19T05:34:59;14.90;99.90
52275;DHT22;38228;50.940;4.024;2023-09-19T05:37:25;14.90;99.90
52275;DHT22;38228;50.940;4.024;2023-09-19T05:39:52;14.70;99.90
52275;DHT22;38228;50.940;4.024;2023-09-19T05:42:19;14.60;99.90
52275;DHT22;38228;50.940;4.024;2023-09-19T05:44:45;14.60;99.90
52275;DHT22;38228;50.940;4.024;2023-09-19T05:47:10;14.60;99.90
52275;DHT22;38228;50.940;4.024;2023-09-19T05:49:36;14.70;99.90
52275;DHT22;38228;50.940;4.024;2023-09-19T05:52:06;14.80;99.90
52275;DHT22;38228;50.940;4.024;2023-09-19T05:54:33;14.80;99.90
52275;DHT22;38228;50.940;4.024;2023-09-19T05:57:00;14.90;99.90
52275;DHT22;38228;50.940;4.024;2023-09-19T05:59:27;14.90;99.90
52275;DHT22;38228;50.940;4.024;2023-09-19T06:01:53;14.90;99.90
52275;DHT22;38228;50.940;4.024;2023-09-19T06:04:18;15.00;99.90
52275;DHT22;38228;50.940;4.024;2023-09-19T06:06:45;15.00;99.90
52275;DHT22;38228;50.940;4.024;2023-09-19T06:09:14;15.00;99.90
52275;DHT22;38228;50.940;4.024;2023-09-19T06:11:42;15.00;99.90
52275;DHT22;38228;50.940;4.024;2023-09-19T06:14:08;14.80;99.90
52275;DHT22;38228;50.940;4.024;2023-09-19T06:16:36;14.90;99.90
52275;DHT22;38228;50.940;4.024;2023-09-19T06:19:03;15.00;99.90
52275;DHT22;38228;50.940;4.024;2023-09-19T06:21:32;15.00;99.90
52275;DHT22;38228;50.940;4.024;2023-09-19T06:24:00;15.20;99.90
52275;DHT22;38228;50.940;4.024;2023-09-19T06:26:25;15.30;99.90
52275;DHT22;38228;50.940;4.024;2023-09-19T06:28:52;15.50;99.90
52275;DHT22;38228;50.940;4.024;2023-09-19T06:31:18;15.60;99.90
52275;DHT22;38228;50.940;4.024;2023-09-19T06:33:46;15.70;99.90
52275;DHT22;38228;50.940;4.024;2023-09-19T06:36:12;15.80;99.90
52275;DHT22;38228;50.940;4.024;2023-09-19T06:38:38;15.80;99.90
52275;DHT22;38228;50.940;4.024;2023-09-19T06:41:05;15.60;99.90
52275;DHT22;38228;50.940;4.024;2023-09-19T06:43:32;15.70;99.90
52275;DHT22;38228;50.940;4.024;2023-09-19T06:45:59;15.90;99.90
52275;DHT22;38228;50.940;4.024;2023-09-19T06:48:26;15.80;99.90
52275;DHT22;38228;50.940;4.024;2023-09-19T06:50:56;15.80;99.90
52275;DHT22;38228;50.940;4.024;2023-09-19T06:53:24;15.90;99.90
52275;DHT22;38228;50.940;4.024;2023-09-19T06:55:51;15.90;99.90
52275;DHT22;38228;50.940;4.024;2023-09-19T06:58:16;15.90;99.90
52275;DHT22;38228;50.940;4.024;2023-09-19T07:00:42;15.90;99.90
52275;DHT22;38228;50.940;4.024;2023-09-19T07:03:10;15.90;99.90
52275;DHT22;38228;50.940;4.024;2023-09-19T07:05:39;15.70;99.90
52275;DHT22;38228;50.940;4.024;2023-09-19T07:08:06;15.70;99.90
52275;DHT22;38228;50.940;4.024;2023-09-19T07:10:33;15.90;99.90
52275;DHT22;38228;50.940;4.024;2023-09-19T07:13:00;15.90;99.90
52275;DHT22;38228;50.940;4.024;2023-09-19T07:15:27;15.70;99.90
52275;DHT22;38228;50.940;4.024;2023-09-19T07:17:53;15.90;99.90
52275;DHT22;38228;50.940;4.024;2023-09-19T07:20:20;16.00;99.90
52275;DHT22;38228;50.940;4.024;2023-09-19T07:22:46;16.10;99.90
52275;DHT22;38228;50.940;4.024;2023-09-19T07:25:13;16.00;99.90
52275;DHT22;38228;50.940;4.024;2023-09-19T07:27:43;16.00;99.90
52275;DHT22;38228;50.940;4.024;2023-09-19T07:30:09;16.20;99.90
52275;DHT22;38228;50.940;4.024;2023-09-19T07:32:36;16.40;99.90
52275;DHT22;38228;50.940;4.024;2023-09-19T07:35:06;16.30;99.90
52275;DHT22;38228;50.940;4.024;2023-09-19T07:37:32;16.50;99.90
52275;DHT22;38228;50.940;4.024;2023-09-19T07:39:59;16.40;99.90
52275;DHT22;38228;50.940;4.024;2023-09-19T07:42:26;16.50;99.90
52275;DHT22;38228;50.940;4.024;2023-09-19T07:44:52;16.60;99.90
52275;DHT22;38228;50.940;4.024;2023-09-19T07:47:20;16.60;99.90
52275;DHT22;38228;50.940;4.024;2023-09-19T07:49:49;16.60;99.90
52275;DHT22;38228;50.940;4.024;2023-09-19T07:52:15;16.60;99.90
52275;DHT22;38228;50.940;4.024;2023-09-19T07:54:41;16.70;99.90
52275;DHT22;38228;50.940;4.024;2023-09-19T07:57:10;16.70;99.90
52275;DHT22;38228;50.940;4.024;2023-09-19T07:59:37;16.80;99.90
52275;DHT22;38228;50.940;4.024;2023-09-19T08:02:04;16.80;99.90
52275;DHT22;38228;50.940;4.024;2023-09-19T08:04:30;16.90;99.90
52275;DHT22;38228;50.940;4.024;2023-09-19T08:06:58;17.20;99.90
52275;DHT22;38228;50.940;4.024;2023-09-19T08:09:26;17.30;99.90
52275;DHT22;38228;50.940;4.024;2023-09-19T08:11:53;17.40;99.90
52275;DHT22;38228;50.940;4.024;2023-09-19T08:14:18;17.50;99.90
52275;DHT22;38228;50.940;4.024;2023-09-19T08:16:44;17.70;99.90
52275;DHT22;38228;50.940;4.024;2023-09-19T08:19:10;17.80;99.90
52275;DHT22;38228;50.940;4.024;2023-09-19T08:21:36;17.40;99.90
52275;DHT22;38228;50.940;4.024;2023-09-19T08:24:02;17.50;99.90
52275;DHT22;38228;50.940;4.024;2023-09-19T08:26:29;17.80;99.90
52275;DHT22;38228;50.940;4.024;2023-09-19T08:28:56;17.90;99.90
52275;DHT22;38228;50.940;4.024;2023-09-19T08:31:22;18.10;99.90
52275;DHT22;38228;50.940;4.024;2023-09-19T08:33:49;18.00;99.90
52275;DHT22;38228;50.940;4.024;2023-09-19T08:36:17;18.20;99.90
52275;DHT22;38228;50.940;4.024;2023-09-19T08:38:42;18.20;99.90
52275;DHT22;38228;50.940;4.024;2023-09-19T08:41:09;18.00;99.90
52275;DHT22;38228;50.940;4.024;2023-09-19T08:43:35;18.20;99.90
52275;DHT22;38228;50.940;4.024;2023-09-19T08:46:12;18.40;99.90
52275;DHT22;38228;50.940;4.024;2023-09-19T08:48:45;18.50;99.90
52275;DHT22;38228;50.940;4.024;2023-09-19T08:54:07;18.70;99.90
52275;DHT22;38228;50.940;4.024;2023-09-19T08:56:33;18.70;99.90
52275;DHT22;38228;50.940;4.024;2023-09-19T08:59:02;18.60;99.90
52275;DHT22;38228;50.940;4.024;2023-09-19T09:01:29;18.60;99.90
52275;DHT22;38228;50.940;4.024;2023-09-19T09:03:56;18.50;99.90
52275;DHT22;38228;50.940;4.024;2023-09-19T09:06:23;18.40;99.90
52275;DHT22;38228;50.940;4.024;2023-09-19T09:08:52;18.40;99.90
52275;DHT22;38228;50.940;4.024;2023-09-19T09:11:20;18.50;99.90
52275;DHT22;38228;50.940;4.024;2023-09-19T09:13:47;18.40;99.90
52275;DHT22;38228;50.940;4.024;2023-09-19T09:16:14;18.40;99.90
52275;DHT22;38228;50.940;4.024;2023-09-19T09:18:47;18.40;99.90
52275;DHT22;38228;50.940;4.024;2023-09-19T09:21:24;18.40;99.90
52275;DHT22;38228;50.940;4.024;2023-09-19T09:23:50;18.50;99.90
52275;DHT22;38228;50.940;4.024;2023-09-19T09:26:22;18.70;99.90
52275;DHT22;38228;50.940;4.024;2023-09-19T09:29:03;18.90;99.90
52275;DHT22;38228;50.940;4.024;2023-09-19T09:31:30;18.80;99.90
52275;DHT22;38228;50.940;4.024;2023-09-19T09:33:57;18.90;99.90
52275;DHT22;38228;50.940;4.024;2023-09-19T09:36:37;18.80;99.90
52275;DHT22;38228;50.940;4.024;2023-09-19T09:39:04;18.70;99.90
52275;DHT22;38228;50.940;4.024;2023-09-19T09:41:42;18.60;99.90
52275;DHT22;38228;50.940;4.024;2023-09-19T09:44:16;18.50;99.90
52275;DHT22;38228;50.940;4.024;2023-09-19T09:46:47;18.50;99.90
52275;DHT22;38228;50.940;4.024;2023-09-19T09:49:26;18.40;99.90
52275;DHT22;38228;50.940;4.024;2023-09-19T09:54:27;18.10;99.90
52275;DHT22;38228;50.940;4.024;2023-09-19T09:57:00;18.30;99.90
52275;DHT22;38228;50.940;4.024;2023-09-19T10:00:00;18.40;99.90
52275;DHT22;38228;50.940;4.024;2023-09-19T10:02:45;18.50;99.90
52275;DHT22;38228;50.940;4.024;2023-09-19T10:05:17;18.70;99.90
52275;DHT22;38228;50.940;4.024;2023-09-19T10:07:49;18.80;99.90
52275;DHT22;38228;50.940;4.024;2023-09-19T10:10:40;18.70;99.90
52275;DHT22;38228;50.940;4.024;2023-09-19T10:13:10;18.70;99.90
52275;DHT22;38228;50.940;4.024;2023-09-19T10:15:50;18.80;99.90
52275;DHT22;38228;50.940;4.024;2023-09-19T10:18:25;18.80;99.90
52275;DHT22;38228;50.940;4.024;2023-09-19T10:20:52;18.90;99.90
52275;DHT22;38228;50.940;4.024;2023-09-19T10:23:20;18.90;99.90
52275;DHT22;38228;50.940;4.024;2023-09-19T10:25:49;19.00;99.90
52275;DHT22;38228;50.940;4.024;2023-09-19T10:28:17;19.10;99.90
52275;DHT22;38228;50.940;4.024;2023-09-19T10:30:48;19.10;99.90
52275;DHT22;38228;50.940;4.024;2023-09-19T10:33:18;19.10;99.90
52275;DHT22;38228;50.940;4.024;2023-09-19T10:35:47;19.00;99.90
52275;DHT22;38228;50.940;4.024;2023-09-19T10:38:14;19.00;99.90
52275;DHT22;38228;50.940;4.024;2023-09-19T10:40:40;19.20;99.90
52275;DHT22;38228;50.940;4.024;2023-09-19T10:43:15;19.20;99.90
52275;DHT22;38228;50.940;4.024;2023-09-19T10:45:44;19.30;99.90
52275;DHT22;38228;50.940;4.024;2023-09-19T10:48:10;19.30;99.90
52275;DHT22;38228;50.940;4.024;2023-09-19T10:51:18;19.30;99.90
52275;DHT22;38228;50.940;4.024;2023-09-19T10:53:55;19.50;99.90
52275;DHT22;38228;50.940;4.024;2023-09-19T10:56:38;19.90;99.90
52275;DHT22;38228;50.940;4.024;2023-09-19T11:01:51;20.30;99.90
52275;DHT22;38228;50.940;4.024;2023-09-19T11:04:33;20.40;99.90
52275;DHT22;38228;50.940;4.024;2023-09-19T11:07:11;20.40;99.90
52275;DHT22;38228;50.940;4.024;2023-09-19T11:12:12;20.10;99.90
52275;DHT22;38228;50.940;4.024;2023-09-19T11:14:39;20.20;99.90
52275;DHT22;38228;50.940;4.024;2023-09-19T11:30:44;20.20;99.90
52275;DHT22;38228;50.940;4.024;2023-09-19T11:33:30;20.40;99.90
52275;DHT22;38228;50.940;4.024;2023-09-19T11:36:12;20.40;99.90
52275;DHT22;38228;50.940;4.024;2023-09-19T11:49:26;20.80;99.90
52275;DHT22;38228;50.940;4.024;2023-09-19T11:51:55;20.60;99.90
52275;DHT22;38228;50.940;4.024;2023-09-19T11:54:22;20.40;99.90
52275;DHT22;38228;50.940;4.024;2023-09-19T11:56:49;20.40;99.90
52275;DHT22;38228;50.940;4.024;2023-09-19T11:59:25;20.60;99.90
52275;DHT22;38228;50.940;4.024;2023-09-19T12:02:04;20.90;99.90
52275;DHT22;38228;50.940;4.024;2023-09-19T12:04:41;21.00;99.90
52275;DHT22;38228;50.940;4.024;2023-09-19T12:07:13;21.20;99.90
52275;DHT22;38228;50.940;4.024;2023-09-19T12:09:43;21.10;99.90
52275;DHT22;38228;50.940;4.024;2023-09-19T12:12:11;20.90;99.90
52275;DHT22;38228;50.940;4.024;2023-09-19T12:14:48;21.00;99.90
52275;DHT22;38228;50.940;4.024;2023-09-19T12:17:14;21.10;99.90
52275;DHT22;38228;50.940;4.024;2023-09-19T12:19:51;21.00;99.90
52275;DHT22;38228;50.940;4.024;2023-09-19T12:22:17;21.10;99.90
52275;DHT22;38228;50.940;4.024;2023-09-19T12:24:46;20.90;99.90
52275;DHT22;38228;50.940;4.024;2023-09-19T12:27:12;20.80;99.90
52275;DHT22;38228;50.940;4.024;2023-09-19T12:29:56;20.90;99.90
52275;DHT22;38228;50.940;4.024;2023-09-19T12:32:35;21.20;99.90
52275;DHT22;38228;50.940;4.024;2023-09-19T12:35:01;21.20;99.90
52275;DHT22;38228;50.940;4.024;2023-09-19T12:37:33;21.20;99.90
52275;DHT22;38228;50.940;4.024;2023-09-19T12:40:08;20.90;99.90
52275;DHT22;38228;50.940;4.024;2023-09-19T12:42:43;20.90;99.90
52275;DHT22;38228;50.940;4.024;2023-09-19T12:45:10;20.90;99.90
52275;DHT22;38228;50.940;4.024;2023-09-19T12:47:39;21.00;99.90
52275;DHT22;38228;50.940;4.024;2023-09-19T12:52:39;21.10;99.90
52275;DHT22;38228;50.940;4.024;2023-09-19T12:55:06;21.20;99.90
52275;DHT22;38228;50.940;4.024;2023-09-19T12:57:35;21.10;99.90
52275;DHT22;38228;50.940;4.024;2023-09-19T13:00:02;21.30;99.90
52275;DHT22;38228;50.940;4.024;2023-09-19T13:02:28;21.10;99.90
52275;DHT22;38228;50.940;4.024;2023-09-19T13:04:54;21.10;99.90
52275;DHT22;38228;50.940;4.024;2023-09-19T13:07:44;21.30;99.90
52275;DHT22;38228;50.940;4.024;2023-09-19T13:10:15;21.60;99.90
52275;DHT22;38228;50.940;4.024;2023-09-19T13:12:43;21.60;99.90
52275;DHT22;38228;50.940;4.024;2023-09-19T13:15:15;21.80;99.90
52275;DHT22;38228;50.940;4.024;2023-09-19T13:17:50;21.70;99.90
52275;DHT22;38228;50.940;4.024;2023-09-19T13:20:26;21.80;99.90
52275;DHT22;38228;50.940;4.024;2023-09-19T13:23:04;21.90;99.90
52275;DHT22;38228;50.940;4.024;2023-09-19T13:25:35;21.80;99.90
52275;DHT22;38228;50.940;4.024;2023-09-19T13:28:10;21.90;99.90
52275;DHT22;38228;50.940;4.024;2023-09-19T13:30:37;21.80;99.90
52275;DHT22;38228;50.940;4.024;2023-09-19T13:33:11;21.90;99.90
52275;DHT22;38228;50.940;4.024;2023-09-19T13:35:39;22.00;99.90
52275;DHT22;38228;50.940;4.024;2023-09-19T13:38:07;21.90;99.90
52275;DHT22;38228;50.940;4.024;2023-09-19T13:40:38;21.80;99.90
52275;DHT22;38228;50.940;4.024;2023-09-19T13:43:05;21.70;99.90
52275;DHT22;38228;50.940;4.024;2023-09-19T13:45:32;22.00;99.90
52275;DHT22;38228;50.940;4.024;2023-09-19T13:47:58;21.80;99.90
52275;DHT22;38228;50.940;4.024;2023-09-19T13:50:24;21.50;99.90
52275;DHT22;38228;50.940;4.024;2023-09-19T13:52:51;21.30;99.90
52275;DHT22;38228;50.940;4.024;2023-09-19T13:55:17;21.00;99.90
52275;DHT22;38228;50.940;4.024;2023-09-19T13:57:49;21.20;99.90
52275;DHT22;38228;50.940;4.024;2023-09-19T14:00:24;21.30;99.90
52275;DHT22;38228;50.940;4.024;2023-09-19T14:02:50;21.30;99.90
52275;DHT22;38228;50.940;4.024;2023-09-19T14:05:16;21.50;99.90
52275;DHT22;38228;50.940;4.024;2023-09-19T14:07:43;21.80;99.90
52275;DHT22;38228;50.940;4.024;2023-09-19T14:10:09;21.80;99.90
52275;DHT22;38228;50.940;4.024;2023-09-19T14:12:36;21.90;99.90
52275;DHT22;38228;50.940;4.024;2023-09-19T14:15:03;21.50;99.90
52275;DHT22;38228;50.940;4.024;2023-09-19T14:17:29;21.60;99.90
52275;DHT22;38228;50.940;4.024;2023-09-19T14:19:55;21.60;99.90
52275;DHT22;38228;50.940;4.024;2023-09-19T14:22:21;21.60;99.90
52275;DHT22;38228;50.940;4.024;2023-09-19T14:24:47;21.20;99.90
52275;DHT22;38228;50.940;4.024;2023-09-19T14:27:13;21.20;99.90
52275;DHT22;38228;50.940;4.024;2023-09-19T14:29:39;21.30;99.90
52275;DHT22;38228;50.940;4.024;2023-09-19T14:32:05;21.50;99.90
52275;DHT22;38228;50.940;4.024;2023-09-19T14:34:31;21.50;99.90
52275;DHT22;38228;50.940;4.024;2023-09-19T14:36:57;21.40;99.90
52275;DHT22;38228;50.940;4.024;2023-09-19T14:39:22;21.20;99.90
52275;DHT22;38228;50.940;4.024;2023-09-19T14:41:49;21.00;99.90
52275;DHT22;38228;50.940;4.024;2023-09-19T14:44:15;20.90;99.90
52275;DHT22;38228;50.940;4.024;2023-09-19T14:46:43;20.50;99.90
52275;DHT22;38228;50.940;4.024;2023-09-19T14:49:11;20.50;99.90
52275;DHT22;38228;50.940;4.024;2023-09-19T14:51:38;20.40;99.90
52275;DHT22;38228;50.940;4.024;2023-09-19T14:54:05;20.40;99.90
52275;DHT22;38228;50.940;4.024;2023-09-19T14:56:33;20.40;99.90
52275;DHT22;38228;50.940;4.024;2023-09-19T14:58:59;20.20;99.90
52275;DHT22;38228;50.940;4.024;2023-09-19T15:01:25;20.20;99.90
52275;DHT22;38228;50.940;4.024;2023-09-19T15:03:50;20.20;99.90
52275;DHT22;38228;50.940;4.024;2023-09-19T15:06:16;20.20;99.90
52275;DHT22;38228;50.940;4.024;2023-09-19T15:08:46;20.10;99.90
52275;DHT22;38228;50.940;4.024;2023-09-19T15:11:19;20.20;99.90
52275;DHT22;38228;50.940;4.024;2023-09-19T15:13:46;20.30;99.90
52275;DHT22;38228;50.940;4.024;2023-09-19T15:16:12;20.30;99.90
52275;DHT22;38228;50.940;4.024;2023-09-19T15:18:41;20.10;99.90
52275;DHT22;38228;50.940;4.024;2023-09-19T15:21:11;20.20;99.90
52275;DHT22;38228;50.940;4.024;2023-09-19T15:23:38;20.20;99.90
52275;DHT22;38228;50.940;4.024;2023-09-19T15:26:05;20.30;99.90
52275;DHT22;38228;50.940;4.024;2023-09-19T15:28:31;20.40;99.90
52275;DHT22;38228;50.940;4.024;2023-09-19T15:31:07;20.40;99.90
52275;DHT22;38228;50.940;4.024;2023-09-19T15:33:34;20.30;99.90
52275;DHT22;38228;50.940;4.024;2023-09-19T15:36:10;20.30;99.90
52275;DHT22;38228;50.940;4.024;2023-09-19T15:39:05;20.20;99.90
52275;DHT22;38228;50.940;4.024;2023-09-19T15:41:41;20.10;99.90
52275;DHT22;38228;50.940;4.024;2023-09-19T15:44:14;20.00;99.90
52275;DHT22;38228;50.940;4.024;2023-09-19T15:46:41;19.90;99.90
52275;DHT22;38228;50.940;4.024;2023-09-19T15:49:08;19.80;99.90
52275;DHT22;38228;50.940;4.024;2023-09-19T15:51:34;19.80;99.90
52275;DHT22;38228;50.940;4.024;2023-09-19T15:54:06;19.90;99.90
52275;DHT22;38228;50.940;4.024;2023-09-19T15:56:33;19.90;99.90
52275;DHT22;38228;50.940;4.024;2023-09-19T15:59:00;19.90;99.90
52275;DHT22;38228;50.940;4.024;2023-09-19T16:01:26;19.90;99.90
52275;DHT22;38228;50.940;4.024;2023-09-19T16:03:53;19.90;99.90
52275;DHT22;38228;50.940;4.024;2023-09-19T16:06:29;19.90;99.90
52275;DHT22;38228;50.940;4.024;2023-09-19T16:08:58;20.00;99.90
52275;DHT22;38228;50.940;4.024;2023-09-19T16:11:25;19.90;99.90
52275;DHT22;38228;50.940;4.024;2023-09-19T16:13:52;19.80;99.90
52275;DHT22;38228;50.940;4.024;2023-09-19T16:16:19;19.60;99.90
52275;DHT22;38228;50.940;4.024;2023-09-19T16:18:52;19.60;99.90
52275;DHT22;38228;50.940;4.024;2023-09-19T16:21:21;19.70;99.90
52275;DHT22;38228;50.940;4.024;2023-09-19T16:23:48;19.70;99.90
52275;DHT22;38228;50.940;4.024;2023-09-19T16:26:15;19.80;99.90
52275;DHT22;38228;50.940;4.024;2023-09-19T16:28:43;19.80;99.90
52275;DHT22;38228;50.940;4.024;2023-09-19T16:31:09;19.90;99.90
52275;DHT22;38228;50.940;4.024;2023-09-19T16:33:37;19.80;99.90
52275;DHT22;38228;50.940;4.024;2023-09-19T16:36:11;19.90;99.90